Darrington, Mississippi
Current Conditions -  °F | °C
As of 12:55 AM on Sunday 26 Oct 2014 (Local Time) from KHEZ Reporting Station
Clear Clear  
Wind Chill: 57°   Ceiling: Unl
Heat Index: 57°   Visibility: 10mi
Dew Point: 54°   Wind: 3mph
Humidity: 88%   Direction: 160°SSE
Pressure: 30.08"   Gusts: NA
Location:  31.312°N, 90.9827°W
Report Text: KHEZ 260555Z AUTO 16003KT 10SM CLR 14/12 A3008 RMK AO1 10200 20140 57010
Loading
Personal Weather Stations






























Interactive Weather Map New forecast layout! Learn more

10-Day Weather Forecast

Advertisements
Track Severe Weather on mobile